sensor_id;sensor_type;location;lat;lon;timestamp;temperature;humidity
18169;DHT22;49877;50.398;30.324;2022-07-15T00:02:09;19.10;99.90
18169;DHT22;49877;50.398;30.324;2022-07-15T00:04:36;19.20;99.90
18169;DHT22;49877;50.398;30.324;2022-07-15T00:07:03;19.10;99.90
18169;DHT22;49877;50.398;30.324;2022-07-15T00:09:32;19.00;99.90
18169;DHT22;49877;50.398;30.324;2022-07-15T00:12:18;19.00;99.90
18169;DHT22;49877;50.398;30.324;2022-07-15T00:14:45;18.90;99.90
18169;DHT22;49877;50.398;30.324;2022-07-15T00:17:12;18.90;99.90
18169;DHT22;49877;50.398;30.324;2022-07-15T00:19:39;18.80;99.90
18169;DHT22;49877;50.398;30.324;2022-07-15T00:22:06;18.80;99.90
18169;DHT22;49877;50.398;30.324;2022-07-15T00:24:33;18.70;99.90
18169;DHT22;49877;50.398;30.324;2022-07-15T00:27:00;18.70;99.90
18169;DHT22;49877;50.398;30.324;2022-07-15T00:29:29;18.60;99.90
18169;DHT22;49877;50.398;30.324;2022-07-15T00:31:56;18.50;99.90
18169;DHT22;49877;50.398;30.324;2022-07-15T00:34:23;18.50;99.90
18169;DHT22;49877;50.398;30.324;2022-07-15T00:36:50;18.40;99.90
18169;DHT22;49877;50.398;30.324;2022-07-15T00:39:17;18.30;99.90
18169;DHT22;49877;50.398;30.324;2022-07-15T00:41:44;18.30;99.90
18169;DHT22;49877;50.398;30.324;2022-07-15T00:44:11;18.30;99.90
18169;DHT22;49877;50.398;30.324;2022-07-15T00:46:40;18.30;99.90
18169;DHT22;49877;50.398;30.324;2022-07-15T00:49:09;18.30;99.90
18169;DHT22;49877;50.398;30.324;2022-07-15T00:51:37;18.30;99.90
18169;DHT22;49877;50.398;30.324;2022-07-15T00:54:05;18.30;99.90
18169;DHT22;49877;50.398;30.324;2022-07-15T00:56:36;18.30;99.90
18169;DHT22;49877;50.398;30.324;2022-07-15T00:59:05;18.30;99.90
18169;DHT22;49877;50.398;30.324;2022-07-15T01:01:33;18.30;99.90
18169;DHT22;49877;50.398;30.324;2022-07-15T01:04:03;18.30;99.90
18169;DHT22;49877;50.398;30.324;2022-07-15T01:06:31;18.30;99.90
18169;DHT22;49877;50.398;30.324;2022-07-15T01:08:58;18.30;99.90
18169;DHT22;49877;50.398;30.324;2022-07-15T01:11:25;18.30;99.90
18169;DHT22;49877;50.398;30.324;2022-07-15T01:13:52;18.30;99.90
18169;DHT22;49877;50.398;30.324;2022-07-15T01:16:20;18.40;99.90
18169;DHT22;49877;50.398;30.324;2022-07-15T01:18:47;18.40;99.90
18169;DHT22;49877;50.398;30.324;2022-07-15T01:21:15;18.40;99.90
18169;DHT22;49877;50.398;30.324;2022-07-15T01:23:42;18.40;99.90
18169;DHT22;49877;50.398;30.324;2022-07-15T01:26:09;18.50;99.90
18169;DHT22;49877;50.398;30.324;2022-07-15T01:28:37;18.50;99.90
18169;DHT22;49877;50.398;30.324;2022-07-15T01:31:04;18.50;99.90
18169;DHT22;49877;50.398;30.324;2022-07-15T01:33:31;18.50;99.90
18169;DHT22;49877;50.398;30.324;2022-07-15T01:35:59;18.50;99.90
18169;DHT22;49877;50.398;30.324;2022-07-15T01:38:28;18.50;99.90
18169;DHT22;49877;50.398;30.324;2022-07-15T01:40:55;18.50;99.90
18169;DHT22;49877;50.398;30.324;2022-07-15T01:43:23;18.40;99.90
18169;DHT22;49877;50.398;30.324;2022-07-15T01:45:50;18.50;99.90
18169;DHT22;49877;50.398;30.324;2022-07-15T01:48:17;18.50;99.90
18169;DHT22;49877;50.398;30.324;2022-07-15T01:51:01;18.50;99.90
18169;DHT22;49877;50.398;30.324;2022-07-15T01:53:29;18.50;99.90
18169;DHT22;49877;50.398;30.324;2022-07-15T01:55:56;18.50;99.90
18169;DHT22;49877;50.398;30.324;2022-07-15T01:58:23;18.50;99.90
18169;DHT22;49877;50.398;30.324;2022-07-15T02:00:50;18.50;99.90
18169;DHT22;49877;50.398;30.324;2022-07-15T02:03:17;18.60;99.90
18169;DHT22;49877;50.398;30.324;2022-07-15T02:05:44;18.60;99.90
18169;DHT22;49877;50.398;30.324;2022-07-15T02:08:11;18.60;99.90
18169;DHT22;49877;50.398;30.324;2022-07-15T02:10:39;18.60;99.90
18169;DHT22;49877;50.398;30.324;2022-07-15T02:13:06;18.70;99.90
18169;DHT22;49877;50.398;30.324;2022-07-15T02:15:33;18.70;99.90
18169;DHT22;49877;50.398;30.324;2022-07-15T02:18:00;18.70;99.90
18169;DHT22;49877;50.398;30.324;2022-07-15T02:20:28;18.80;99.90
18169;DHT22;49877;50.398;30.324;2022-07-15T02:22:55;18.80;99.90
18169;DHT22;49877;50.398;30.324;2022-07-15T02:25:23;18.80;99.90
18169;DHT22;49877;50.398;30.324;2022-07-15T02:27:53;18.90;99.90
18169;DHT22;49877;50.398;30.324;2022-07-15T02:30:23;18.90;99.90
18169;DHT22;49877;50.398;30.324;2022-07-15T02:32:50;18.90;99.90
18169;DHT22;49877;50.398;30.324;2022-07-15T02:35:17;18.90;99.90
18169;DHT22;49877;50.398;30.324;2022-07-15T02:37:44;18.90;99.90
18169;DHT22;49877;50.398;30.324;2022-07-15T02:40:12;18.90;99.90
18169;DHT22;49877;50.398;30.324;2022-07-15T02:42:39;18.90;99.90
18169;DHT22;49877;50.398;30.324;2022-07-15T02:45:08;19.00;99.90
18169;DHT22;49877;50.398;30.324;2022-07-15T02:47:35;19.00;99.90
18169;DHT22;49877;50.398;30.324;2022-07-15T02:50:02;19.00;99.90
18169;DHT22;49877;50.398;30.324;2022-07-15T02:52:29;19.00;99.90
18169;DHT22;49877;50.398;30.324;2022-07-15T02:54:56;19.10;99.90
18169;DHT22;49877;50.398;30.324;2022-07-15T02:57:22;19.10;99.90
18169;DHT22;49877;50.398;30.324;2022-07-15T02:59:49;19.10;99.90
18169;DHT22;49877;50.398;30.324;2022-07-15T03:02:18;19.10;99.90
18169;DHT22;49877;50.398;30.324;2022-07-15T03:04:45;19.10;99.90
18169;DHT22;49877;50.398;30.324;2022-07-15T03:07:12;19.20;99.90
18169;DHT22;49877;50.398;30.324;2022-07-15T03:09:39;19.10;99.90
18169;DHT22;49877;50.398;30.324;2022-07-15T03:12:06;19.10;99.90
18169;DHT22;49877;50.398;30.324;2022-07-15T03:14:33;19.20;99.90
18169;DHT22;49877;50.398;30.324;2022-07-15T03:17:00;19.20;99.90
18169;DHT22;49877;50.398;30.324;2022-07-15T03:19:28;19.20;99.90
18169;DHT22;49877;50.398;30.324;2022-07-15T03:21:55;19.20;99.90
18169;DHT22;49877;50.398;30.324;2022-07-15T03:24:22;19.10;99.90
18169;DHT22;49877;50.398;30.324;2022-07-15T03:26:49;19.10;99.90
18169;DHT22;49877;50.398;30.324;2022-07-15T03:29:16;19.10;99.90
18169;DHT22;49877;50.398;30.324;2022-07-15T03:31:43;19.10;99.90
18169;DHT22;49877;50.398;30.324;2022-07-15T03:34:10;19.10;99.90
18169;DHT22;49877;50.398;30.324;2022-07-15T03:36:38;19.10;99.90
18169;DHT22;49877;50.398;30.324;2022-07-15T03:39:06;19.10;99.90
18169;DHT22;49877;50.398;30.324;2022-07-15T03:41:33;19.10;99.90
18169;DHT22;49877;50.398;30.324;2022-07-15T03:44:01;19.00;99.90
18169;DHT22;49877;50.398;30.324;2022-07-15T03:46:28;19.00;99.90
18169;DHT22;49877;50.398;30.324;2022-07-15T03:48:56;19.00;99.90
18169;DHT22;49877;50.398;30.324;2022-07-15T03:51:23;19.00;99.90
18169;DHT22;49877;50.398;30.324;2022-07-15T03:53:51;19.00;99.90
18169;DHT22;49877;50.398;30.324;2022-07-15T03:56:18;19.00;99.90
18169;DHT22;49877;50.398;30.324;2022-07-15T03:58:45;19.00;99.90
18169;DHT22;49877;50.398;30.324;2022-07-15T04:01:12;19.10;99.90
18169;DHT22;49877;50.398;30.324;2022-07-15T04:03:39;19.10;99.90
18169;DHT22;49877;50.398;30.324;2022-07-15T04:06:06;19.10;99.90
18169;DHT22;49877;50.398;30.324;2022-07-15T04:08:33;19.10;99.90
18169;DHT22;49877;50.398;30.324;2022-07-15T04:11:01;19.10;99.90
18169;DHT22;49877;50.398;30.324;2022-07-15T04:13:28;19.00;99.90
18169;DHT22;49877;50.398;30.324;2022-07-15T04:15:55;18.90;99.90
18169;DHT22;49877;50.398;30.324;2022-07-15T04:18:22;18.90;99.90
18169;DHT22;49877;50.398;30.324;2022-07-15T04:20:49;18.80;99.90
18169;DHT22;49877;50.398;30.324;2022-07-15T04:23:16;18.80;99.90
18169;DHT22;49877;50.398;30.324;2022-07-15T04:25:43;18.90;99.90
18169;DHT22;49877;50.398;30.324;2022-07-15T04:28:11;18.90;99.90
18169;DHT22;49877;50.398;30.324;2022-07-15T04:30:38;19.00;99.90
18169;DHT22;49877;50.398;30.324;2022-07-15T04:33:05;19.00;99.90
18169;DHT22;49877;50.398;30.324;2022-07-15T04:35:32;19.00;99.90
18169;DHT22;49877;50.398;30.324;2022-07-15T04:37:59;19.10;99.90
18169;DHT22;49877;50.398;30.324;2022-07-15T04:40:26;19.10;99.90
18169;DHT22;49877;50.398;30.324;2022-07-15T04:42:52;19.20;99.90
18169;DHT22;49877;50.398;30.324;2022-07-15T04:45:21;19.20;99.90
18169;DHT22;49877;50.398;30.324;2022-07-15T04:47:48;19.20;99.90
18169;DHT22;49877;50.398;30.324;2022-07-15T04:50:14;19.30;99.90
18169;DHT22;49877;50.398;30.324;2022-07-15T04:52:58;19.40;99.90
18169;DHT22;49877;50.398;30.324;2022-07-15T04:55:25;19.40;99.90
18169;DHT22;49877;50.398;30.324;2022-07-15T04:57:52;19.40;99.90
18169;DHT22;49877;50.398;30.324;2022-07-15T05:00:21;19.40;99.90
18169;DHT22;49877;50.398;30.324;2022-07-15T05:02:48;19.40;99.90
18169;DHT22;49877;50.398;30.324;2022-07-15T05:05:14;19.50;99.90
18169;DHT22;49877;50.398;30.324;2022-07-15T05:07:41;19.50;99.90
18169;DHT22;49877;50.398;30.324;2022-07-15T05:10:09;19.40;99.90
18169;DHT22;49877;50.398;30.324;2022-07-15T05:12:36;19.40;99.90
18169;DHT22;49877;50.398;30.324;2022-07-15T05:15:04;19.50;99.90
18169;DHT22;49877;50.398;30.324;2022-07-15T05:17:33;19.50;99.90
18169;DHT22;49877;50.398;30.324;2022-07-15T05:20:00;19.60;99.90
18169;DHT22;49877;50.398;30.324;2022-07-15T05:22:27;19.50;99.90
18169;DHT22;49877;50.398;30.324;2022-07-15T05:24:54;19.50;99.90
18169;DHT22;49877;50.398;30.324;2022-07-15T05:27:21;19.50;99.90
18169;DHT22;49877;50.398;30.324;2022-07-15T05:29:48;19.50;99.90
18169;DHT22;49877;50.398;30.324;2022-07-15T05:32:15;19.50;99.90
18169;DHT22;49877;50.398;30.324;2022-07-15T05:34:43;19.50;99.90
18169;DHT22;49877;50.398;30.324;2022-07-15T05:37:10;19.60;99.90
18169;DHT22;49877;50.398;30.324;2022-07-15T05:39:37;19.70;99.90
18169;DHT22;49877;50.398;30.324;2022-07-15T05:42:18;19.80;99.90
18169;DHT22;49877;50.398;30.324;2022-07-15T05:44:45;19.90;99.90
18169;DHT22;49877;50.398;30.324;2022-07-15T05:47:12;20.00;99.90
18169;DHT22;49877;50.398;30.324;2022-07-15T05:49:39;20.10;99.90
18169;DHT22;49877;50.398;30.324;2022-07-15T05:52:08;20.20;99.90
18169;DHT22;49877;50.398;30.324;2022-07-15T05:54:35;20.30;99.90
18169;DHT22;49877;50.398;30.324;2022-07-15T05:57:02;20.40;99.90
18169;DHT22;49877;50.398;30.324;2022-07-15T05:59:29;20.50;99.90
18169;DHT22;49877;50.398;30.324;2022-07-15T06:01:57;20.50;99.90
18169;DHT22;49877;50.398;30.324;2022-07-15T06:04:24;20.50;99.90
18169;DHT22;49877;50.398;30.324;2022-07-15T06:06:52;20.60;99.90
18169;DHT22;49877;50.398;30.324;2022-07-15T06:09:20;20.70;99.90
18169;DHT22;49877;50.398;30.324;2022-07-15T06:11:47;20.80;99.90
18169;DHT22;49877;50.398;30.324;2022-07-15T06:14:14;21.00;99.90
18169;DHT22;49877;50.398;30.324;2022-07-15T06:16:41;21.10;99.90
18169;DHT22;49877;50.398;30.324;2022-07-15T06:19:08;21.20;99.90
18169;DHT22;49877;50.398;30.324;2022-07-15T06:21:36;21.40;99.90
18169;DHT22;49877;50.398;30.324;2022-07-15T06:24:04;21.60;99.90
18169;DHT22;49877;50.398;30.324;2022-07-15T06:26:32;21.70;99.90
18169;DHT22;49877;50.398;30.324;2022-07-15T06:28:59;21.80;99.90
18169;DHT22;49877;50.398;30.324;2022-07-15T06:31:26;22.00;99.90
18169;DHT22;49877;50.398;30.324;2022-07-15T06:33:53;22.10;99.90
18169;DHT22;49877;50.398;30.324;2022-07-15T06:36:20;22.20;99.90
18169;DHT22;49877;50.398;30.324;2022-07-15T06:38:47;22.30;99.90
18169;DHT22;49877;50.398;30.324;2022-07-15T06:41:15;22.50;99.90
18169;DHT22;49877;50.398;30.324;2022-07-15T06:43:44;22.60;99.90
18169;DHT22;49877;50.398;30.324;2022-07-15T06:46:11;22.70;99.90
18169;DHT22;49877;50.398;30.324;2022-07-15T06:48:38;22.80;99.90
18169;DHT22;49877;50.398;30.324;2022-07-15T06:51:06;22.90;99.90
18169;DHT22;49877;50.398;30.324;2022-07-15T06:53:33;23.00;99.90
18169;DHT22;49877;50.398;30.324;2022-07-15T06:56:00;23.10;99.90
18169;DHT22;49877;50.398;30.324;2022-07-15T06:58:27;23.20;99.90
18169;DHT22;49877;50.398;30.324;2022-07-15T07:00:55;23.30;99.90
18169;DHT22;49877;50.398;30.324;2022-07-15T07:03:22;23.50;99.90
18169;DHT22;49877;50.398;30.324;2022-07-15T07:05:49;23.60;99.90
18169;DHT22;49877;50.398;30.324;2022-07-15T07:08:15;23.70;99.90
18169;DHT22;49877;50.398;30.324;2022-07-15T07:10:42;23.80;99.90
18169;DHT22;49877;50.398;30.324;2022-07-15T07:13:09;23.90;99.90
18169;DHT22;49877;50.398;30.324;2022-07-15T07:15:36;24.00;99.90
18169;DHT22;49877;50.398;30.324;2022-07-15T07:18:05;24.00;99.90
18169;DHT22;49877;50.398;30.324;2022-07-15T07:20:32;24.10;99.90
18169;DHT22;49877;50.398;30.324;2022-07-15T07:22:58;24.20;99.90
18169;DHT22;49877;50.398;30.324;2022-07-15T07:25:25;24.30;99.90
18169;DHT22;49877;50.398;30.324;2022-07-15T07:27:52;24.40;99.90
18169;DHT22;49877;50.398;30.324;2022-07-15T07:30:19;24.60;99.90
18169;DHT22;49877;50.398;30.324;2022-07-15T07:32:46;24.70;99.90
18169;DHT22;49877;50.398;30.324;2022-07-15T07:35:14;24.80;99.90
18169;DHT22;49877;50.398;30.324;2022-07-15T07:37:41;24.80;99.90
18169;DHT22;49877;50.398;30.324;2022-07-15T07:40:08;24.90;99.90
18169;DHT22;49877;50.398;30.324;2022-07-15T07:42:36;25.00;99.90
18169;DHT22;49877;50.398;30.324;2022-07-15T07:45:05;25.10;99.90
18169;DHT22;49877;50.398;30.324;2022-07-15T07:47:33;25.20;99.90
18169;DHT22;49877;50.398;30.324;2022-07-15T07:50:03;25.40;99.90
18169;DHT22;49877;50.398;30.324;2022-07-15T07:52:31;25.40;99.90
18169;DHT22;49877;50.398;30.324;2022-07-15T07:54:58;25.50;99.90
18169;DHT22;49877;50.398;30.324;2022-07-15T07:57:25;25.70;99.90
18169;DHT22;49877;50.398;30.324;2022-07-15T07:59:52;25.80;99.90
18169;DHT22;49877;50.398;30.324;2022-07-15T08:02:19;26.00;99.90
18169;DHT22;49877;50.398;30.324;2022-07-15T08:04:46;26.10;99.90
18169;DHT22;49877;50.398;30.324;2022-07-15T08:07:13;26.20;99.90
18169;DHT22;49877;50.398;30.324;2022-07-15T08:09:42;26.20;99.90
18169;DHT22;49877;50.398;30.324;2022-07-15T08:12:08;26.00;99.90
18169;DHT22;49877;50.398;30.324;2022-07-15T08:14:35;25.60;99.90
18169;DHT22;49877;50.398;30.324;2022-07-15T08:17:02;25.10;99.90
18169;DHT22;49877;50.398;30.324;2022-07-15T08:19:29;25.00;99.90
18169;DHT22;49877;50.398;30.324;2022-07-15T08:21:56;24.90;99.90
18169;DHT22;49877;50.398;30.324;2022-07-15T08:24:23;24.80;99.90
18169;DHT22;49877;50.398;30.324;2022-07-15T08:26:51;24.50;99.90
18169;DHT22;49877;50.398;30.324;2022-07-15T08:29:18;24.20;99.90
18169;DHT22;49877;50.398;30.324;2022-07-15T08:31:45;24.10;99.90
18169;DHT22;49877;50.398;30.324;2022-07-15T08:34:12;24.10;99.90
18169;DHT22;49877;50.398;30.324;2022-07-15T08:36:39;23.90;99.90
18169;DHT22;49877;50.398;30.324;2022-07-15T08:39:06;23.80;99.90
18169;DHT22;49877;50.398;30.324;2022-07-15T08:41:34;23.60;99.90
18169;DHT22;49877;50.398;30.324;2022-07-15T08:44:04;23.60;99.90
18169;DHT22;49877;50.398;30.324;2022-07-15T08:46:33;23.70;99.90
18169;DHT22;49877;50.398;30.324;2022-07-15T08:49:04;23.80;99.90
18169;DHT22;49877;50.398;30.324;2022-07-15T08:51:34;23.80;99.90
18169;DHT22;49877;50.398;30.324;2022-07-15T08:54:04;23.80;99.90
18169;DHT22;49877;50.398;30.324;2022-07-15T08:56:32;23.90;99.90
18169;DHT22;49877;50.398;30.324;2022-07-15T08:59:02;23.90;99.90
18169;DHT22;49877;50.398;30.324;2022-07-15T09:01:30;24.00;99.90
18169;DHT22;49877;50.398;30.324;2022-07-15T09:03:58;24.00;99.90
18169;DHT22;49877;50.398;30.324;2022-07-15T09:06:32;24.10;99.90
18169;DHT22;49877;50.398;30.324;2022-07-15T09:09:27;24.10;99.90
18169;DHT22;49877;50.398;30.324;2022-07-15T09:12:05;24.10;99.90
18169;DHT22;49877;50.398;30.324;2022-07-15T09:14:34;24.20;99.90
18169;DHT22;49877;50.398;30.324;2022-07-15T09:17:06;24.30;99.90
18169;DHT22;49877;50.398;30.324;2022-07-15T09:20:02;24.30;99.90
18169;DHT22;49877;50.398;30.324;2022-07-15T09:22:32;24.30;99.90
18169;DHT22;49877;50.398;30.324;2022-07-15T09:25:05;24.30;99.90
18169;DHT22;49877;50.398;30.324;2022-07-15T09:27:35;24.30;99.90
18169;DHT22;49877;50.398;30.324;2022-07-15T09:30:19;24.30;99.90
18169;DHT22;49877;50.398;30.324;2022-07-15T09:33:05;24.20;99.90
18169;DHT22;49877;50.398;30.324;2022-07-15T09:35:50;24.20;99.90
18169;DHT22;49877;50.398;30.324;2022-07-15T09:38:39;24.10;99.90
18169;DHT22;49877;50.398;30.324;2022-07-15T09:41:11;24.00;99.90
18169;DHT22;49877;50.398;30.324;2022-07-15T09:43:49;23.90;99.90
18169;DHT22;49877;50.398;30.324;2022-07-15T09:46:19;23.80;99.90
18169;DHT22;49877;50.398;30.324;2022-07-15T09:48:47;23.70;99.90
18169;DHT22;49877;50.398;30.324;2022-07-15T09:51:15;23.60;99.90
18169;DHT22;49877;50.398;30.324;2022-07-15T09:53:42;23.60;99.90
18169;DHT22;49877;50.398;30.324;2022-07-15T09:56:11;23.60;99.90
18169;DHT22;49877;50.398;30.324;2022-07-15T09:58:41;23.60;99.90
18169;DHT22;49877;50.398;30.324;2022-07-15T10:01:09;23.60;99.90
18169;DHT22;49877;50.398;30.324;2022-07-15T10:03:38;23.50;99.90
18169;DHT22;49877;50.398;30.324;2022-07-15T10:06:06;23.40;99.90
18169;DHT22;49877;50.398;30.324;2022-07-15T10:08:34;23.30;99.90
18169;DHT22;49877;50.398;30.324;2022-07-15T10:11:08;23.20;99.90
18169;DHT22;49877;50.398;30.324;2022-07-15T10:13:56;23.20;99.90
18169;DHT22;49877;50.398;30.324;2022-07-15T10:16:49;23.20;99.90
18169;DHT22;49877;50.398;30.324;2022-07-15T10:19:26;23.20;99.90
18169;DHT22;49877;50.398;30.324;2022-07-15T10:22:04;23.10;99.90
18169;DHT22;49877;50.398;30.324;2022-07-15T10:24:44;23.00;99.90
18169;DHT22;49877;50.398;30.324;2022-07-15T10:27:35;22.90;99.90
18169;DHT22;49877;50.398;30.324;2022-07-15T10:30:08;22.80;99.90
18169;DHT22;49877;50.398;30.324;2022-07-15T10:33:07;22.70;99.90
18169;DHT22;49877;50.398;30.324;2022-07-15T10:35:40;22.60;99.90
18169;DHT22;49877;50.398;30.324;2022-07-15T10:38:29;22.40;99.90
18169;DHT22;49877;50.398;30.324;2022-07-15T10:41:07;22.30;99.90
18169;DHT22;49877;50.398;30.324;2022-07-15T10:43:46;22.30;99.90
18169;DHT22;49877;50.398;30.324;2022-07-15T10:46:24;22.20;99.90
18169;DHT22;49877;50.398;30.324;2022-07-15T10:51:44;22.20;99.90
18169;DHT22;49877;50.398;30.324;2022-07-15T10:54:42;22.10;99.90
18169;DHT22;49877;50.398;30.324;2022-07-15T10:57:10;21.90;99.90
18169;DHT22;49877;50.398;30.324;2022-07-15T10:59:47;21.80;99.90
18169;DHT22;49877;50.398;30.324;2022-07-15T11:02:16;21.70;99.90
18169;DHT22;49877;50.398;30.324;2022-07-15T11:04:44;21.60;99.90
18169;DHT22;49877;50.398;30.324;2022-07-15T11:07:26;21.50;99.90
18169;DHT22;49877;50.398;30.324;2022-07-15T11:09:55;21.30;99.90
18169;DHT22;49877;50.398;30.324;2022-07-15T11:12:24;21.20;99.90
18169;DHT22;49877;50.398;30.324;2022-07-15T11:14:53;21.20;99.90
18169;DHT22;49877;50.398;30.324;2022-07-15T11:17:24;21.20;99.90
18169;DHT22;49877;50.398;30.324;2022-07-15T11:19:53;21.10;99.90
18169;DHT22;49877;50.398;30.324;2022-07-15T11:22:22;21.00;99.90
18169;DHT22;49877;50.398;30.324;2022-07-15T11:24:51;21.00;99.90
18169;DHT22;49877;50.398;30.324;2022-07-15T11:27:20;21.00;99.90
18169;DHT22;49877;50.398;30.324;2022-07-15T11:29:49;21.00;99.90
18169;DHT22;49877;50.398;30.324;2022-07-15T11:32:18;20.80;99.90
18169;DHT22;49877;50.398;30.324;2022-07-15T11:34:49;20.70;99.90
18169;DHT22;49877;50.398;30.324;2022-07-15T11:37:16;20.70;99.90
18169;DHT22;49877;50.398;30.324;2022-07-15T11:39:47;20.60;99.90
18169;DHT22;49877;50.398;30.324;2022-07-15T11:42:23;20.60;99.90
18169;DHT22;49877;50.398;30.324;2022-07-15T11:45:08;20.50;99.90
18169;DHT22;49877;50.398;30.324;2022-07-15T11:47:50;20.50;99.90
18169;DHT22;49877;50.398;30.324;2022-07-15T11:50:17;20.50;99.90
18169;DHT22;49877;50.398;30.324;2022-07-15T11:52:45;20.50;99.90
18169;DHT22;49877;50.398;30.324;2022-07-15T11:55:12;20.50;99.90
18169;DHT22;49877;50.398;30.324;2022-07-15T11:57:45;20.40;99.90
18169;DHT22;49877;50.398;30.324;2022-07-15T12:00:13;20.40;99.90
18169;DHT22;49877;50.398;30.324;2022-07-15T12:02:40;20.40;99.90
18169;DHT22;49877;50.398;30.324;2022-07-15T12:05:08;20.40;99.90
18169;DHT22;49877;50.398;30.324;2022-07-15T12:07:39;20.30;99.90
18169;DHT22;49877;50.398;30.324;2022-07-15T12:10:08;20.40;99.90
18169;DHT22;49877;50.398;30.324;2022-07-15T12:12:41;20.40;99.90
18169;DHT22;49877;50.398;30.324;2022-07-15T12:15:09;20.50;99.90
18169;DHT22;49877;50.398;30.324;2022-07-15T12:17:37;20.70;99.90
18169;DHT22;49877;50.398;30.324;2022-07-15T12:20:05;20.90;99.90
18169;DHT22;49877;50.398;30.324;2022-07-15T12:22:32;20.80;99.90
18169;DHT22;49877;50.398;30.324;2022-07-15T12:25:00;20.80;99.90
18169;DHT22;49877;50.398;30.324;2022-07-15T12:27:33;20.80;99.90
18169;DHT22;49877;50.398;30.324;2022-07-15T12:30:03;20.90;99.90
18169;DHT22;49877;50.398;30.324;2022-07-15T12:32:30;21.00;99.90
18169;DHT22;49877;50.398;30.324;2022-07-15T12:34:59;21.00;99.90
18169;DHT22;49877;50.398;30.324;2022-07-15T12:37:27;21.20;99.90
18169;DHT22;49877;50.398;30.324;2022-07-15T12:39:59;21.40;99.90
18169;DHT22;49877;50.398;30.324;2022-07-15T12:42:29;21.50;99.90
18169;DHT22;49877;50.398;30.324;2022-07-15T12:45:10;21.60;99.90
18169;DHT22;49877;50.398;30.324;2022-07-15T12:47:56;21.70;99.90
18169;DHT22;49877;50.398;30.324;2022-07-15T12:50:23;21.80;99.90
18169;DHT22;49877;50.398;30.324;2022-07-15T12:52:52;21.90;99.90
18169;DHT22;49877;50.398;30.324;2022-07-15T12:55:21;22.00;99.90
18169;DHT22;49877;50.398;30.324;2022-07-15T12:57:49;22.10;99.90
18169;DHT22;49877;50.398;30.324;2022-07-15T13:00:20;22.20;99.90
18169;DHT22;49877;50.398;30.324;2022-07-15T13:02:59;22.20;99.90
18169;DHT22;49877;50.398;30.324;2022-07-15T13:05:27;22.30;99.90
18169;DHT22;49877;50.398;30.324;2022-07-15T13:07:54;22.40;99.90
18169;DHT22;49877;50.398;30.324;2022-07-15T13:10:21;22.30;99.90
18169;DHT22;49877;50.398;30.324;2022-07-15T13:12:48;22.20;99.90
18169;DHT22;49877;50.398;30.324;2022-07-15T13:15:15;22.10;99.90
18169;DHT22;49877;50.398;30.324;2022-07-15T13:17:43;22.10;99.90
18169;DHT22;49877;50.398;30.324;2022-07-15T13:20:11;21.90;99.90
18169;DHT22;49877;50.398;30.324;2022-07-15T13:22:39;22.00;99.90
18169;DHT22;49877;50.398;30.324;2022-07-15T13:25:07;21.90;99.90
18169;DHT22;49877;50.398;30.324;2022-07-15T13:27:34;21.90;99.90
18169;DHT22;49877;50.398;30.324;2022-07-15T13:30:02;22.00;99.90
18169;DHT22;49877;50.398;30.324;2022-07-15T13:32:29;22.10;99.90
18169;DHT22;49877;50.398;30.324;2022-07-15T13:34:57;22.20;99.90
18169;DHT22;49877;50.398;30.324;2022-07-15T13:37:24;22.30;99.90
18169;DHT22;49877;50.398;30.324;2022-07-15T13:39:51;22.40;99.90
18169;DHT22;49877;50.398;30.324;2022-07-15T13:42:18;22.50;99.90
18169;DHT22;49877;50.398;30.324;2022-07-15T13:44:45;22.60;99.90
18169;DHT22;49877;50.398;30.324;2022-07-15T13:47:12;22.70;99.90
18169;DHT22;49877;50.398;30.324;2022-07-15T13:49:39;22.70;99.90
18169;DHT22;49877;50.398;30.324;2022-07-15T13:52:24;22.60;99.90
18169;DHT22;49877;50.398;30.324;2022-07-15T13:54:51;22.50;99.90
18169;DHT22;49877;50.398;30.324;2022-07-15T13:57:18;22.40;99.90
18169;DHT22;49877;50.398;30.324;2022-07-15T13:59:45;22.40;99.90
18169;DHT22;49877;50.398;30.324;2022-07-15T14:02:12;22.40;99.90
18169;DHT22;49877;50.398;30.324;2022-07-15T14:04:40;22.40;99.90
18169;DHT22;49877;50.398;30.324;2022-07-15T14:07:07;22.50;99.90
18169;DHT22;49877;50.398;30.324;2022-07-15T14:09:35;22.60;99.90
18169;DHT22;49877;50.398;30.324;2022-07-15T14:12:02;22.70;99.90
18169;DHT22;49877;50.398;30.324;2022-07-15T14:14:29;22.70;99.90
18169;DHT22;49877;50.398;30.324;2022-07-15T14:16:56;22.70;99.90
18169;DHT22;49877;50.398;30.324;2022-07-15T14:19:23;22.70;99.90
18169;DHT22;49877;50.398;30.324;2022-07-15T14:21:50;22.70;99.90
18169;DHT22;49877;50.398;30.324;2022-07-15T14:24:17;22.70;99.90
18169;DHT22;49877;50.398;30.324;2022-07-15T14:26:46;22.70;99.90
18169;DHT22;49877;50.398;30.324;2022-07-15T14:29:13;22.70;99.90
18169;DHT22;49877;50.398;30.324;2022-07-15T14:31:40;22.70;99.90
18169;DHT22;49877;50.398;30.324;2022-07-15T14:34:07;22.80;99.90
18169;DHT22;49877;50.398;30.324;2022-07-15T14:36:34;22.80;99.90
18169;DHT22;49877;50.398;30.324;2022-07-15T14:39:01;22.90;99.90
18169;DHT22;49877;50.398;30.324;2022-07-15T14:41:29;22.80;99.90
18169;DHT22;49877;50.398;30.324;2022-07-15T14:43:58;22.90;99.90
18169;DHT22;49877;50.398;30.324;2022-07-15T14:46:24;22.90;99.90
18169;DHT22;49877;50.398;30.324;2022-07-15T14:48:51;22.90;99.90
18169;DHT22;49877;50.398;30.324;2022-07-15T14:51:18;22.80;99.90
18169;DHT22;49877;50.398;30.324;2022-07-15T14:53:45;22.80;99.90
18169;DHT22;49877;50.398;30.324;2022-07-15T14:56:12;22.80;99.90
18169;DHT22;49877;50.398;30.324;2022-07-15T14:58:39;22.80;99.90
18169;DHT22;49877;50.398;30.324;2022-07-15T15:01:08;22.80;99.90
18169;DHT22;49877;50.398;30.324;2022-07-15T15:03:35;22.70;99.90
18169;DHT22;49877;50.398;30.324;2022-07-15T15:06:02;22.60;99.90
18169;DHT22;49877;50.398;30.324;2022-07-15T15:08:29;22.60;99.90
18169;DHT22;49877;50.398;30.324;2022-07-15T15:10:56;22.60;99.90
18169;DHT22;49877;50.398;30.324;2022-07-15T15:13:23;22.70;99.90
18169;DHT22;49877;50.398;30.324;2022-07-15T15:15:50;22.70;99.90
18169;DHT22;49877;50.398;30.324;2022-07-15T15:18:18;22.70;99.90
18169;DHT22;49877;50.398;30.324;2022-07-15T15:20:45;22.70;99.90
18169;DHT22;49877;50.398;30.324;2022-07-15T15:23:12;22.70;99.90
18169;DHT22;49877;50.398;30.324;2022-07-15T15:25:39;22.60;99.90
18169;DHT22;49877;50.398;30.324;2022-07-15T15:28:23;22.60;99.90
18169;DHT22;49877;50.398;30.324;2022-07-15T15:30:50;22.60;99.90